Time;durP1;ratioP1;P1;durP2;ratioP2;P2;SDS_P1;SDS_P2;PMS_P1;PMS_P2;Temp;Humidity;BMP_temperature;BMP_pressure;BME280_temperature;BME280_humidity;BME280_pressure;Samples;Min_cycle;Max_cycle;Signal;HPM_P1;HPM_P2
2021/12/28 00:00:48;;;;;;;41.77;29.63;;;9.20;1.00;9.60;98886.00;;;;5012914;28;20461;-79
2021/12/28 00:03:17;;;;;;;38.10;27.13;;;9.30;1.00;9.60;98887.00;;;;5010255;28;20453;-79
2021/12/28 00:05:45;;;;;;;36.83;28.83;;;9.30;1.00;9.60;98884.00;;;;5013829;28;20464;-80
2021/12/28 00:08:15;;;;;;;38.37;28.10;;;9.30;1.00;9.70;98893.00;;;;5016095;28;20492;-79
2021/12/28 00:10:44;;;;;;;41.07;29.83;;;9.30;1.00;9.70;98886.00;;;;5026981;28;20483;-81
2021/12/28 00:13:12;;;;;;;37.37;29.07;;;9.30;1.00;9.70;68419.00;;;;5013499;28;20497;-79
2021/12/28 00:15:49;;;;;;;36.43;27.77;;;9.40;1.00;9.70;98877.00;;;;5021008;28;20879;-78
2021/12/28 00:18:19;;;;;;;39.13;29.03;;;9.40;1.00;9.70;98881.00;;;;5028158;28;20488;-78
2021/12/28 00:20:52;;;;;;;43.27;30.00;;;9.30;1.00;9.70;68410.00;;;;5019874;28;20468;-79
2021/12/28 00:23:24;;;;;;;48.60;31.23;;;9.30;1.00;9.70;68410.00;;;;5013468;28;20463;-79
2021/12/28 00:25:55;;;;;;;68.10;35.50;;;9.40;1.00;9.60;98886.00;;;;5011574;28;20479;-79
2021/12/28 00:28:24;;;;;;;57.57;34.63;;;9.30;1.00;9.60;98879.00;;;;5014832;28;20477;-79
2021/12/28 00:30:54;;;;;;;51.50;33.83;;;9.20;1.00;9.60;68379.00;;;;5013695;28;21867;-79
2021/12/28 00:33:26;;;;;;;50.57;32.20;;;9.20;1.00;9.50;68357.00;;;;5016253;28;20454;-79
2021/12/28 00:35:55;;;;;;;54.00;33.10;;;9.10;1.00;9.50;98879.00;;;;5033169;28;20449;-78
2021/12/28 00:38:26;;;;;;;48.00;29.90;;;9.00;1.00;9.40;68344.00;;;;5014517;28;21491;-80
2021/12/28 00:40:57;;;;;;;107.80;39.20;;;9.10;1.00;9.40;98881.00;;;;5021058;28;20446;-80
2021/12/28 00:43:27;;;;;;;105.73;42.43;;;8.90;1.00;9.40;98886.00;;;;5035727;28;20440;-82
2021/12/28 00:45:56;;;;;;;62.67;36.00;;;9.00;1.00;9.30;68332.00;;;;5031196;28;20456;-79
2021/12/28 00:48:25;;;;;;;69.37;36.30;;;9.00;1.00;9.40;68338.00;;;;5017253;28;20476;-78
2021/12/28 00:50:54;;;;;;;62.57;35.77;;;9.00;1.00;9.40;98880.00;;;;5016450;28;20449;-79
2021/12/28 00:53:23;;;;;;;44.63;30.20;;;9.00;1.00;9.50;98895.00;;;;5015718;28;20461;-80
2021/12/28 00:55:51;;;;;;;55.97;34.43;;;9.00;1.00;9.50;98875.00;;;;5020337;28;20461;-78
2021/12/28 00:58:21;;;;;;;43.60;30.87;;;9.00;1.00;9.60;98886.00;;;;5033568;28;20474;-78
2021/12/28 01:00:49;;;;;;;45.33;31.23;;;9.10;1.00;9.60;98870.00;;;;5030031;28;20519;-80
2021/12/28 01:03:18;;;;;;;52.57;33.00;;;9.20;1.00;9.60;68391.00;;;;5042450;28;20537;-82
2021/12/28 01:05:49;;;;;;;128.00;37.40;;;9.20;1.00;52.70;160831.00;;;;5041799;28;20502;-79
2021/12/28 01:08:17;;;;;;;51.97;33.17;;;9.20;1.00;9.60;98851.00;;;;5025207;28;20492;-79
2021/12/28 01:10:52;;;;;;;50.30;32.60;;;9.20;1.00;9.60;98863.00;;;;5017980;28;20885;-79
2021/12/28 01:13:21;;;;;;;59.20;35.83;;;9.20;1.00;9.60;68390.00;;;;5040059;28;20448;-80
2021/12/28 01:15:50;;;;;;;62.27;35.73;;;9.20;1.00;9.60;98853.00;;;;5017997;28;20823;-80
2021/12/28 01:18:19;;;;;;;51.93;34.00;;;9.20;1.00;9.60;98850.00;;;;5017720;28;20485;-80
2021/12/28 01:20:51;;;;;;;46.40;31.27;;;9.20;1.00;9.70;98842.00;;;;5018013;28;20464;-79
2021/12/28 01:23:20;;;;;;;40.30;29.50;;;9.30;1.00;9.70;98846.00;;;;5015496;28;20463;-79
2021/12/28 01:25:48;;;;;;;43.77;31.07;;;9.30;1.00;9.70;98859.00;;;;5017632;28;20477;-79
2021/12/28 01:28:17;;;;;;;40.60;29.00;;;9.50;1.00;9.70;68413.00;;;;5039078;28;20530;-78
2021/12/28 01:30:45;;;;;;;38.87;29.53;;;9.30;1.00;9.70;98833.00;;;;5019279;28;20484;-83
2021/12/28 01:33:13;;;;;;;78.60;33.83;;;9.30;1.00;9.70;68413.00;;;;5017852;28;20893;-79
2021/12/28 01:35:42;;;;;;;56.33;33.10;;;9.30;1.00;9.70;68418.00;;;;5016080;28;20508;-78
2021/12/28 01:38:11;;;;;;;83.37;38.23;;;9.30;1.00;9.70;98844.00;;;;5020623;28;20460;-79
2021/12/28 01:40:43;;;;;;;83.53;38.87;;;9.30;1.00;9.70;98833.00;;;;5022307;28;20456;-78
2021/12/28 01:43:14;;;;;;;51.53;33.70;;;9.20;1.00;9.60;98839.00;;;;5021487;28;20495;-80
2021/12/28 01:45:49;;;;;;;74.93;40.33;;;9.20;1.00;9.60;98841.00;;;;5020459;28;20943;-78
2021/12/28 01:48:21;;;;;;;54.30;34.23;;;9.10;1.00;9.60;98832.00;;;;5019704;28;20986;-79
2021/12/28 01:50:52;;;;;;;57.00;35.00;;;9.30;1.00;9.60;98835.00;;;;5028083;28;20484;-80
2021/12/28 01:53:24;;;;;;;61.60;34.67;;;9.20;1.00;9.60;98826.00;;;;5028745;28;20445;-79
2021/12/28 01:55:57;;;;;;;54.53;33.80;;;9.20;1.00;9.70;98822.00;;;;5036372;28;21035;-79
2021/12/28 01:58:25;;;;;;;48.17;31.90;;;9.20;1.00;9.70;98819.00;;;;5042497;28;20489;-82
2021/12/28 02:00:55;;;;;;;49.03;33.10;;;9.20;1.00;9.70;98825.00;;;;5038328;28;20454;-77
2021/12/28 02:03:27;;;;;;;67.63;34.10;;;9.30;1.00;9.70;98822.00;;;;5051815;28;20435;-83
2021/12/28 02:05:56;;;;;;;50.50;32.43;;;9.30;1.00;9.70;98820.00;;;;5055734;28;20504;-81
2021/12/28 02:08:26;;;;;;;55.80;35.20;;;9.30;1.00;9.70;68379.00;;;;5050299;28;20535;-83
2021/12/28 02:10:57;;;;;;;64.20;36.63;;;9.20;1.00;9.60;98808.00;;;;5049027;28;20456;-81
2021/12/28 02:13:27;;;;;;;55.00;33.70;;;9.20;1.00;9.60;98807.00;;;;5042825;28;20971;-82
2021/12/28 02:15:59;;;;;;;46.93;31.33;;;9.20;1.00;9.60;98809.00;;;;5050657;28;20520;-80
2021/12/28 02:18:30;;;;;;;45.17;30.07;;;9.20;1.00;9.70;98792.00;;;;5050269;28;20476;-81
2021/12/28 02:21:03;;;;;;;36.23;28.27;;;9.20;1.00;9.70;98801.00;;;;5058994;28;20445;-80
2021/12/28 02:23:32;;;;;;;59.27;32.87;;;9.30;1.00;9.70;98792.00;;;;5045892;28;20479;-81
2021/12/28 02:26:00;;;;;;;66.20;34.30;;;9.30;1.00;9.70;68423.00;;;;5051058;28;20445;-81
2021/12/28 02:28:28;;;;;;;41.73;30.23;;;9.30;1.00;9.70;68419.00;;;;5041812;28;20496;-81
2021/12/28 02:31:00;;;;;;;43.77;30.00;;;9.30;1.00;9.70;98782.00;;;;5036008;28;20481;-80
2021/12/28 02:33:28;;;;;;;52.60;32.57;;;9.40;1.00;9.80;98783.00;;;;5040598;28;20494;-80
2021/12/28 02:36:01;;;;;;;165.90;44.30;;;9.30;1.00;9.80;98783.00;;;;5053354;28;20464;-80
2021/12/28 02:38:31;;;;;;;124.80;37.47;;;9.30;1.00;9.80;98771.00;;;;5045239;28;20474;-79
2021/12/28 02:41:00;;;;;;;136.60;39.00;;;9.30;1.00;217.30;160894.00;;;;5039110;28;20453;-80
2021/12/28 02:43:28;;;;;;;114.87;40.00;;;9.40;1.00;9.80;68429.00;;;;5049028;28;20439;-82
2021/12/28 02:46:01;;;;;;;126.77;38.90;;;9.30;1.00;9.80;98757.00;;;;5052151;28;20441;-81
2021/12/28 02:48:30;;;;;;;42.13;28.50;;;9.30;1.00;9.80;68423.00;;;;5061865;28;20474;-81
2021/12/28 02:51:03;;;;;;;44.80;28.17;;;9.30;1.00;9.80;98762.00;;;;5045849;28;20464;-79
2021/12/28 02:53:32;;;;;;;36.37;25.73;;;9.40;1.00;9.80;98767.00;;;;5041843;28;20435;-80
2021/12/28 02:56:00;;;;;;;68.53;31.40;;;9.30;1.00;9.80;98760.00;;;;5041394;28;20449;-80
2021/12/28 02:58:32;;;;;;;48.63;27.67;;;9.30;1.00;9.80;98753.00;;;;5039693;28;20465;-82
2021/12/28 03:01:09;;;;;;;40.87;27.80;;;9.40;1.00;9.80;98746.00;;;;5050860;28;20437;-80
2021/12/28 03:03:39;;;;;;;36.27;25.47;;;9.40;1.00;9.80;98738.00;;;;5045899;28;20421;-81
2021/12/28 03:06:13;;;;;;;27.73;23.90;;;9.40;1.00;9.80;98741.00;;;;5054400;28;20452;-82
2021/12/28 03:08:46;;;;;;;29.60;23.70;;;9.40;1.00;9.90;98740.00;;;;5049835;28;20474;-81
2021/12/28 03:11:15;;;;;;;47.77;27.60;;;9.40;1.00;9.80;98730.00;;;;5046401;28;20457;-84
2021/12/28 03:13:46;;;;;;;35.43;25.17;;;9.40;1.00;9.90;98741.00;;;;5052972;28;20464;-81
2021/12/28 03:16:16;;;;;;;30.53;25.30;;;9.50;1.00;9.90;98740.00;;;;5037604;28;20544;-80
2021/12/28 03:18:45;;;;;;;27.50;23.10;;;9.40;1.00;9.90;98741.00;;;;5047068;28;21362;-80
2021/12/28 03:21:19;;;;;;;39.27;26.70;;;9.40;1.00;9.90;98730.00;;;;5029757;28;20449;-80
2021/12/28 03:23:47;;;;;;;35.27;26.13;;;9.50;1.00;9.90;98726.00;;;;5039315;28;20452;-80
2021/12/28 03:26:16;;;;;;;33.07;24.87;;;9.40;1.00;9.90;98717.00;;;;5060876;28;20461;-80
2021/12/28 03:28:45;;;;;;;42.07;28.70;;;9.40;1.00;9.90;98702.00;;;;5038206;28;20510;-80
2021/12/28 03:31:18;;;;;;;35.57;27.23;;;9.40;1.00;9.90;98714.00;;;;5035650;28;20477;-80
2021/12/28 03:33:51;;;;;;;43.83;26.13;;;9.50;1.00;9.90;98702.00;;;;5035480;28;20465;-80
2021/12/28 03:36:23;;;;;;;43.17;28.13;;;9.40;1.00;9.90;98702.00;;;;5043253;28;20464;-81
2021/12/28 03:38:52;;;;;;;38.43;27.23;;;9.40;1.00;9.80;98696.00;;;;5037627;28;20575;-80
2021/12/28 03:41:23;;;;;;;46.37;26.13;;;9.40;1.00;9.80;98700.00;;;;5051746;28;20455;-80
2021/12/28 03:43:54;;;;;;;48.87;28.43;;;9.40;1.00;9.70;98691.00;;;;5043742;28;20441;-80
2021/12/28 03:46:24;;;;;;;43.53;27.77;;;9.20;1.00;9.70;98685.00;;;;5031241;28;20456;-80
2021/12/28 03:48:54;;;;;;;43.80;26.97;;;9.30;1.00;9.70;98689.00;;;;5060700;28;20487;-80
2021/12/28 03:51:24;;;;;;;38.70;25.77;;;9.20;1.00;9.80;98684.00;;;;5049301;28;20492;-81
2021/12/28 03:53:53;;;;;;;59.20;30.20;;;9.30;1.00;9.80;98672.00;;;;5040843;28;20528;-80
2021/12/28 03:56:22;;;;;;;67.33;30.80;;;9.30;1.00;9.80;98676.00;;;;5026950;28;20460;-80
2021/12/28 03:58:51;;;;;;;38.77;24.70;;;9.40;1.00;9.80;98679.00;;;;5029792;28;20473;-80
2021/12/28 04:01:25;;;;;;;33.30;24.30;;;9.40;1.00;9.90;98668.00;;;;5027220;28;20468;-81
2021/12/28 04:03:54;;;;;;;34.00;23.60;;;9.40;1.00;9.90;98658.00;;;;5029346;28;20471;-80
2021/12/28 04:06:24;;;;;;;25.40;14.33;;;9.50;1.00;9.90;98666.00;;;;5050891;28;20457;-81
2021/12/28 04:08:53;;;;;;;22.90;14.87;;;9.50;1.00;10.00;98667.00;;;;5019722;28;20480;-80
2021/12/28 04:11:27;;;;;;;21.27;12.90;;;9.50;1.00;10.00;68473.00;;;;5033988;28;20540;-79
2021/12/28 04:14:05;;;;;;;28.87;20.17;;;9.50;1.00;10.00;98667.00;;;;5046099;28;20441;-81
2021/12/28 04:16:34;;;;;;;27.97;20.07;;;9.60;1.00;10.00;98665.00;;;;5018747;28;20466;-81
2021/12/28 04:19:05;;;;;;;28.20;16.50;;;9.60;1.00;10.00;98672.00;;;;5016786;28;20489;-81
2021/12/28 04:21:36;;;;;;;28.20;16.93;;;9.50;1.00;10.10;98670.00;;;;5019451;28;20458;-81
2021/12/28 04:24:05;;;;;;;27.50;18.10;;;9.70;1.00;10.10;98668.00;;;;5013223;28;20464;-81
2021/12/28 04:26:33;;;;;;;26.97;17.10;;;9.60;1.00;52.70;161023.00;;;;5015964;28;20462;-81
2021/12/28 04:29:01;;;;;;;22.10;12.80;;;9.70;1.00;10.10;98650.00;;;;5015315;28;21060;-81
2021/12/28 04:31:29;;;;;;;20.47;11.93;;;9.70;1.00;10.20;98654.00;;;;5016521;28;20477;-80
2021/12/28 04:33:58;;;;;;;24.33;15.90;;;9.70;1.00;10.10;68507.00;;;;5016824;28;20489;-80
2021/12/28 04:36:30;;;;;;;20.03;9.30;;;9.70;1.00;10.10;98662.00;;;;5017571;28;20501;-81
2021/12/28 04:39:00;;;;;;;19.87;8.90;;;9.70;1.00;10.20;98643.00;;;;5016650;28;20866;-80
2021/12/28 04:41:28;;;;;;;18.70;9.67;;;9.70;1.00;52.70;161065.00;;;;5018208;28;20445;-80
2021/12/28 04:43:59;;;;;;;21.30;10.10;;;9.80;1.00;10.30;98652.00;;;;5017341;28;20492;-81
2021/12/28 04:46:28;;;;;;;22.60;12.87;;;9.80;1.00;10.30;98645.00;;;;5032184;28;20454;-81
2021/12/28 04:48:56;;;;;;;17.90;12.60;;;9.80;1.00;10.30;98664.00;;;;5025881;28;21128;-80
2021/12/28 04:51:25;;;;;;;26.90;14.13;;;9.90;1.00;10.30;98656.00;;;;5042823;28;20465;-80
2021/12/28 04:53:54;;;;;;;22.50;13.43;;;9.90;1.00;10.30;98657.00;;;;5041754;28;20472;-81
2021/12/28 04:56:24;;;;;;;22.10;13.10;;;9.90;1.00;10.30;98665.00;;;;5017956;28;20456;-80
2021/12/28 04:58:53;;;;;;;16.80;10.47;;;9.90;1.00;10.30;98660.00;;;;5016020;28;20491;-81
2021/12/28 05:01:21;;;;;;;26.40;9.30;;;9.90;1.00;10.30;98672.00;;;;5015350;28;20469;-80
2021/12/28 05:03:49;;;;;;;21.13;9.03;;;9.90;1.00;10.30;98656.00;;;;5014534;28;20456;-81
2021/12/28 05:06:18;;;;;;;20.80;8.97;;;9.90;1.00;10.30;98656.00;;;;5013566;28;20457;-81
2021/12/28 05:08:46;;;;;;;18.83;6.10;;;10.00;1.00;10.30;98666.00;;;;5019912;28;20488;-81
2021/12/28 05:11:15;;;;;;;11.70;5.77;;;9.90;1.00;10.30;98656.00;;;;5029413;28;20476;-81
2021/12/28 05:13:45;;;;;;;16.20;6.53;;;9.80;1.00;10.20;98673.00;;;;5028853;28;20457;-81
2021/12/28 05:16:15;;;;;;;17.27;6.73;;;9.90;1.00;10.20;98668.00;;;;5029969;28;20893;-80
2021/12/28 05:18:44;;;;;;;15.50;5.90;;;9.90;1.00;10.20;98662.00;;;;5033948;28;20472;-81
2021/12/28 05:21:12;;;;;;;12.13;5.50;;;9.80;1.00;10.20;98664.00;;;;5035259;28;20464;-81
2021/12/28 05:23:41;;;;;;;14.90;5.50;;;9.80;1.00;10.10;98655.00;;;;5030973;28;20462;-81
2021/12/28 05:26:09;;;;;;;22.27;7.03;;;9.80;1.00;10.20;68515.00;;;;5027980;28;21084;-81
2021/12/28 05:28:38;;;;;;;19.50;6.87;;;9.80;1.00;10.20;98505.00;;;;5044015;28;20484;-81
2021/12/28 05:31:07;;;;;;;15.77;6.17;;;9.80;1.00;10.20;98664.00;;;;5022515;28;20480;-81
2021/12/28 05:33:36;;;;;;;18.37;6.70;;;9.80;1.00;10.20;98645.00;;;;5024074;28;20970;-81
2021/12/28 05:36:05;;;;;;;14.53;6.40;;;9.80;1.00;10.20;98631.00;;;;5027333;28;20452;-81
2021/12/28 05:38:33;;;;;;;14.07;6.20;;;9.80;1.00;10.20;98636.00;;;;5028932;28;20879;-81
2021/12/28 05:41:02;;;;;;;19.50;6.80;;;9.90;1.00;10.20;98659.00;;;;5023615;28;20918;-81
2021/12/28 05:43:31;;;;;;;20.43;7.47;;;9.90;1.00;10.20;98651.00;;;;5028312;28;20460;-81
2021/12/28 05:45:59;;;;;;;21.90;8.20;;;9.80;1.00;10.30;98642.00;;;;5023495;28;20464;-80
2021/12/28 05:48:29;;;;;;;26.37;8.30;;;9.90;1.00;217.30;161114.00;;;;5035201;28;20468;-81
2021/12/28 05:50:57;;;;;;;22.33;7.07;;;10.00;1.00;10.30;98640.00;;;;5018513;28;20456;-81
2021/12/28 05:53:27;;;;;;;19.00;7.77;;;10.00;1.00;10.30;98639.00;;;;5018625;28;20479;-81
2021/12/28 05:55:55;;;;;;;18.20;6.77;;;9.90;1.00;10.20;98626.00;;;;5015967;28;20937;-81
2021/12/28 05:58:23;;;;;;;13.73;6.13;;;9.90;1.00;10.30;98627.00;;;;5017671;28;20478;-80
2021/12/28 06:00:51;;;;;;;20.00;6.50;;;9.90;1.00;10.30;98623.00;;;;5018892;28;20461;-80
2021/12/28 06:03:20;;;;;;;17.40;6.23;;;10.00;1.00;10.30;98618.00;;;;5016572;28;20465;-80
2021/12/28 06:05:49;;;;;;;20.40;6.20;;;10.00;1.00;10.30;98614.00;;;;5019421;28;20459;-80
2021/12/28 06:08:18;;;;;;;15.13;5.90;;;9.90;1.00;10.30;98611.00;;;;5035718;28;20469;-80
2021/12/28 06:10:59;;;;;;;18.00;6.60;;;9.90;1.00;10.30;98602.00;;;;5023100;28;20481;-80
2021/12/28 06:13:28;;;;;;;12.37;5.50;;;9.90;1.00;10.20;98608.00;;;;5024575;28;20507;-80
2021/12/28 06:15:56;;;;;;;14.47;6.30;;;9.80;1.00;10.20;98614.00;;;;5033664;28;20513;-82
2021/12/28 06:18:24;;;;;;;14.20;6.00;;;9.90;1.00;10.20;98597.00;;;;5029661;28;20493;-81
2021/12/28 06:20:54;;;;;;;15.20;6.30;;;9.80;1.00;10.20;68515.00;;;;5036647;28;20442;-80
2021/12/28 06:23:22;;;;;;;14.00;6.27;;;9.80;1.00;10.20;98596.00;;;;5043184;28;20810;-80
2021/12/28 06:25:51;;;;;;;18.20;6.93;;;9.70;1.00;10.10;98589.00;;;;5023693;28;20468;-79
2021/12/28 06:28:19;;;;;;;13.63;5.90;;;9.70;1.00;10.10;98586.00;;;;5051472;28;20481;-79
2021/12/28 06:30:47;;;;;;;16.50;5.40;;;9.60;1.00;10.10;98582.00;;;;5032525;28;20452;-80
2021/12/28 06:33:16;;;;;;;11.50;5.60;;;9.60;1.00;10.10;98579.00;;;;5013854;28;20535;-80
2021/12/28 06:35:44;;;;;;;18.50;5.50;;;9.60;1.00;10.10;98574.00;;;;5012031;28;20468;-81
2021/12/28 06:38:14;;;;;;;15.43;5.40;;;9.60;1.00;10.10;98588.00;;;;5038213;28;20477;-81
2021/12/28 06:40:43;;;;;;;13.27;5.20;;;9.70;1.00;10.10;98567.00;;;;5019627;28;20548;-81
2021/12/28 06:43:11;;;;;;;20.97;7.30;;;9.70;1.00;10.10;98565.00;;;;5014406;28;20471;-80
2021/12/28 06:45:40;;;;;;;12.77;5.43;;;9.70;1.00;10.10;98560.00;;;;5012208;28;20461;-80
2021/12/28 06:48:10;;;;;;;14.73;4.90;;;9.70;1.00;10.00;98566.00;;;;5010655;28;20625;-80
2021/12/28 06:50:38;;;;;;;10.80;5.23;;;9.60;1.00;10.00;98584.00;;;;5013913;28;20459;-84
2021/12/28 06:53:06;;;;;;;17.27;6.33;;;9.60;1.00;10.00;98569.00;;;;5023073;28;20472;-81
2021/12/28 06:55:36;;;;;;;16.03;4.60;;;9.60;1.00;10.00;68476.00;;;;5024136;28;20488;-81
2021/12/28 06:58:05;;;;;;;14.40;5.03;;;9.60;1.00;10.00;98578.00;;;;5037104;28;20547;-81
2021/12/28 07:00:34;;;;;;;13.87;6.90;;;9.60;1.00;10.10;98571.00;;;;5033311;28;20548;-81
2021/12/28 07:03:04;;;;;;;17.37;5.93;;;9.70;1.00;10.10;98577.00;;;;5012949;28;20496;-80
2021/12/28 07:05:33;;;;;;;15.43;5.57;;;9.70;1.00;10.10;98570.00;;;;5012637;28;20461;-80
2021/12/28 07:08:02;;;;;;;12.90;5.63;;;9.70;1.00;10.00;98573.00;;;;5013591;28;20465;-78
2021/12/28 07:10:30;;;;;;;11.80;5.27;;;9.60;1.00;10.00;98566.00;;;;5013231;28;20461;-79
2021/12/28 07:13:00;;;;;;;13.90;5.30;;;9.60;1.00;10.00;98549.00;;;;5017653;28;20489;-79
2021/12/28 07:15:29;;;;;;;12.87;5.07;;;9.60;1.00;10.00;98562.00;;;;5037245;28;20462;-79
2021/12/28 07:17:57;;;;;;;9.87;5.20;;;9.60;1.00;10.00;98573.00;;;;5037464;28;20520;-86
2021/12/28 07:20:27;;;;;;;13.50;5.70;;;9.60;1.00;10.00;98553.00;;;;5043566;28;20456;-81
2021/12/28 07:22:55;;;;;;;14.40;6.20;;;9.60;1.00;10.00;98558.00;;;;5037191;28;20442;-83
2021/12/28 07:25:24;;;;;;;21.37;6.33;;;9.60;1.00;10.00;98568.00;;;;5059024;28;20446;-83
2021/12/28 07:27:52;;;;;;;14.43;6.00;;;9.60;1.00;10.00;98564.00;;;;5051991;28;20499;-82
2021/12/28 07:30:22;;;;;;;15.20;5.33;;;9.60;1.00;10.00;98557.00;;;;5038661;28;20484;-81
2021/12/28 07:32:51;;;;;;;13.70;4.83;;;9.50;1.00;10.00;98557.00;;;;5031161;28;20493;-83
2021/12/28 07:35:19;;;;;;;13.13;5.03;;;9.60;1.00;9.90;98557.00;;;;5030667;28;20461;-82
2021/12/28 07:37:48;;;;;;;13.00;4.80;;;9.50;1.00;9.90;98557.00;;;;5029347;28;20484;-83
2021/12/28 07:40:16;;;;;;;13.00;5.10;;;9.50;1.00;9.90;68462.00;;;;5031677;28;20475;-84
2021/12/28 07:42:45;;;;;;;15.43;5.40;;;9.50;1.00;10.00;98543.00;;;;5026947;28;20831;-82
2021/12/28 07:45:15;;;;;;;11.87;5.63;;;9.50;1.00;10.00;98545.00;;;;5030218;28;20457;-82
2021/12/28 07:47:45;;;;;;;10.47;4.87;;;9.60;1.00;10.00;98545.00;;;;5027805;28;20570;-82
2021/12/28 07:50:15;;;;;;;12.90;4.63;;;9.60;1.00;10.10;68490.00;;;;5028932;28;20473;-80
2021/12/28 07:52:46;;;;;;;11.37;5.13;;;9.60;1.00;10.10;98545.00;;;;5029231;28;20485;-82
2021/12/28 07:55:15;;;;;;;11.83;4.60;;;9.60;1.00;10.10;98535.00;;;;5027723;28;20461;-83
2021/12/28 07:57:44;;;;;;;9.80;4.20;;;9.70;1.00;10.10;98539.00;;;;5023902;28;20472;-82
2021/12/28 08:00:17;;;;;;;12.93;4.40;;;9.70;1.00;10.10;98526.00;;;;5021703;28;20505;-82
2021/12/28 08:02:47;;;;;;;11.00;4.83;;;9.70;1.00;10.10;98544.00;;;;5022874;28;20849;-82
2021/12/28 08:05:17;;;;;;;11.30;4.17;;;9.70;1.00;10.10;98537.00;;;;5028001;28;20468;-81
2021/12/28 08:07:45;;;;;;;10.83;3.77;;;9.70;1.00;10.10;98546.00;;;;5028769;28;20472;-82
2021/12/28 08:10:17;;;;;;;13.00;4.90;;;9.70;1.00;10.20;98552.00;;;;5037070;28;20464;-81
2021/12/28 08:12:47;;;;;;;6.83;3.70;;;9.80;1.00;10.20;68517.00;;;;5027460;28;21511;-81
2021/12/28 08:15:16;;;;;;;6.27;3.40;;;9.80;1.00;10.20;98550.00;;;;5022252;28;20469;-83
2021/12/28 08:17:46;;;;;;;11.60;4.70;;;9.90;1.00;10.20;98547.00;;;;5024962;28;20485;-82
2021/12/28 08:20:16;;;;;;;10.20;4.30;;;9.80;1.00;10.30;98550.00;;;;5044243;28;20448;-81
2021/12/28 08:22:46;;;;;;;11.67;4.30;;;9.80;1.00;10.30;98537.00;;;;5029265;28;20460;-81
2021/12/28 08:25:18;;;;;;;11.30;3.57;;;9.90;1.00;10.30;98537.00;;;;5030949;28;20487;-83
2021/12/28 08:27:47;;;;;;;18.00;5.10;;;9.90;1.00;10.40;98542.00;;;;5041676;28;20568;-84
2021/12/28 08:30:18;;;;;;;12.17;4.60;;;9.90;1.00;10.30;98551.00;;;;5035467;28;20493;-81
2021/12/28 08:32:48;;;;;;;14.50;3.97;;;9.90;1.00;10.40;98551.00;;;;5044727;28;20479;-83
2021/12/28 08:35:18;;;;;;;8.90;5.17;;;10.00;1.00;10.40;98548.00;;;;5050251;28;20452;-83
2021/12/28 08:37:47;;;;;;;11.70;4.10;;;10.20;1.00;10.40;98547.00;;;;5032862;28;21044;-80
2021/12/28 08:40:20;;;;;;;13.23;4.60;;;10.00;1.00;10.50;98521.00;;;;5027207;28;20449;-83
2021/12/28 08:42:49;;;;;;;14.07;4.80;;;10.00;1.00;10.40;98537.00;;;;5031221;28;20896;-80
2021/12/28 08:45:18;;;;;;;11.10;4.77;;;10.10;1.00;10.40;98540.00;;;;5024677;28;20460;-82
2021/12/28 08:47:50;;;;;;;14.70;5.40;;;9.90;1.00;10.50;98542.00;;;;5022447;28;21095;-81
2021/12/28 08:50:20;;;;;;;14.70;5.13;;;10.00;1.00;10.50;98542.00;;;;5022251;28;20437;-83
2021/12/28 08:52:49;;;;;;;9.00;4.03;;;10.10;1.00;10.50;98537.00;;;;5030697;28;20487;-81
2021/12/28 08:55:23;;;;;;;9.20;4.70;;;10.10;1.00;10.40;98531.00;;;;5032838;28;20453;-86
2021/12/28 08:57:52;;;;;;;8.90;4.77;;;10.00;1.00;10.40;98529.00;;;;5039191;28;20524;-82
2021/12/28 09:00:24;;;;;;;8.40;4.00;;;10.00;1.00;10.30;98546.00;;;;5040280;28;20453;-83
2021/12/28 09:02:56;;;;;;;8.03;3.90;;;9.90;1.00;10.30;98539.00;;;;5067405;28;20527;-84
2021/12/28 09:05:28;;;;;;;10.40;4.07;;;9.90;1.00;10.30;98542.00;;;;5058422;28;20461;-80
2021/12/28 09:07:58;;;;;;;8.57;4.40;;;9.90;1.00;10.30;98543.00;;;;5025542;28;20492;-81
2021/12/28 09:10:27;;;;;;;11.10;4.20;;;9.90;1.00;10.40;98541.00;;;;5022870;28;20493;-82
2021/12/28 09:12:57;;;;;;;8.53;4.30;;;10.00;1.00;10.50;98542.00;;;;5021156;28;20456;-80
2021/12/28 09:15:25;;;;;;;10.80;3.80;;;10.00;1.00;10.50;98537.00;;;;5027217;28;20459;-81
2021/12/28 09:17:55;;;;;;;8.70;3.93;;;10.10;1.00;10.50;98547.00;;;;5033351;28;20531;-80
2021/12/28 09:20:26;;;;;;;5.57;3.50;;;10.10;1.00;10.60;98549.00;;;;5028450;28;20488;-84
2021/12/28 09:23:07;;;;;;;6.43;3.60;;;10.10;1.00;10.60;98540.00;;;;5022908;28;21001;-84
2021/12/28 09:25:36;;;;;;;7.30;3.80;;;10.20;1.00;10.60;98538.00;;;;5028894;28;20458;-80
2021/12/28 09:28:06;;;;;;;4.43;3.40;;;10.20;1.00;10.70;98526.00;;;;5022339;28;20480;-86
2021/12/28 09:30:35;;;;;;;5.60;3.20;;;10.30;1.00;10.70;98544.00;;;;5024030;28;20479;-81
2021/12/28 09:33:05;;;;;;;5.40;3.27;;;10.30;1.00;10.60;98553.00;;;;5023014;28;20461;-80
2021/12/28 09:35:35;;;;;;;5.10;3.60;;;10.30;1.00;10.60;98549.00;;;;5033253;28;20450;-80
2021/12/28 09:38:04;;;;;;;7.23;3.70;;;10.20;1.00;10.60;98552.00;;;;5022398;28;21648;-80
2021/12/28 09:40:34;;;;;;;5.20;4.07;;;10.20;1.00;10.50;98542.00;;;;5020501;28;20453;-84
2021/12/28 09:43:05;;;;;;;9.03;4.90;;;10.20;1.00;10.50;98542.00;;;;5037210;28;20446;-79
2021/12/28 09:45:34;;;;;;;7.23;4.20;;;10.20;1.00;10.50;98535.00;;;;5030995;28;20448;-87
2021/12/28 09:48:05;;;;;;;7.93;4.10;;;10.20;1.00;10.60;98520.00;;;;5039822;28;20546;-81
2021/12/28 09:50:34;;;;;;;8.13;4.43;;;10.20;1.00;10.60;98535.00;;;;5027709;28;20452;-80
2021/12/28 09:53:04;;;;;;;9.10;4.23;;;10.30;1.00;10.70;98553.00;;;;5027811;28;20449;-80
2021/12/28 09:55:33;;;;;;;6.53;4.20;;;10.30;1.00;10.80;98531.00;;;;5019323;28;20449;-80
2021/12/28 09:58:02;;;;;;;7.07;4.73;;;10.40;1.00;10.90;98536.00;;;;5027644;28;20480;-80
2021/12/28 10:00:36;;;;;;;8.80;5.63;;;10.50;1.00;10.90;98531.00;;;;5029297;28;21016;-80
2021/12/28 10:03:15;;;;;;;10.07;5.00;;;10.50;1.00;10.90;68698.00;;;;5025683;28;20456;-84
2021/12/28 10:05:44;;;;;;;7.70;4.73;;;10.60;1.00;11.00;98540.00;;;;5025403;28;20449;-81
2021/12/28 10:08:13;;;;;;;8.63;5.43;;;10.70;1.00;11.10;98529.00;;;;5045469;28;20488;-83
2021/12/28 10:10:47;;;;;;;8.23;4.70;;;10.70;1.00;11.10;98540.00;;;;5025140;28;20525;-79
2021/12/28 10:13:21;;;;;;;7.33;5.23;;;10.80;1.00;11.10;98527.00;;;;5025567;28;20456;-81
2021/12/28 10:15:52;;;;;;;4.90;4.40;;;10.80;1.00;11.10;98538.00;;;;5021117;28;20451;-83
2021/12/28 10:18:22;;;;;;;5.40;4.60;;;10.80;1.00;11.20;98546.00;;;;5028801;28;21044;-77
2021/12/28 10:20:55;;;;;;;7.53;4.50;;;10.80;1.00;11.20;98542.00;;;;5030361;28;20465;-81
2021/12/28 10:23:26;;;;;;;6.30;4.33;;;10.80;1.00;11.10;98527.00;;;;5031066;28;20445;-83
2021/12/28 10:25:57;;;;;;;4.97;4.20;;;10.80;1.00;11.00;98525.00;;;;5034896;28;20457;-87
2021/12/28 10:28:31;;;;;;;5.83;5.13;;;10.80;1.00;11.00;98543.00;;;;5040983;28;20553;-86
2021/12/28 10:31:05;;;;;;;8.67;5.23;;;10.90;1.00;11.00;98536.00;;;;5046920;28;20555;-85
2021/12/28 10:33:39;;;;;;;6.83;5.10;;;10.70;1.00;11.00;98521.00;;;;5047345;28;20428;-86
2021/12/28 10:36:11;;;;;;;6.20;5.17;;;10.80;1.00;217.30;161487.00;;;;5047556;28;20460;-83
2021/12/28 10:38:47;;;;;;;6.40;5.60;;;11.00;1.00;11.30;98524.00;;;;5030965;28;20481;-78
2021/12/28 10:41:18;;;;;;;6.20;5.60;;;10.90;1.00;11.40;98514.00;;;;5026022;28;20418;-79
2021/12/28 10:43:50;;;;;;;6.03;5.53;;;11.00;1.00;11.40;98536.00;;;;5056177;28;20441;-87
2021/12/28 10:46:22;;;;;;;6.30;5.60;;;11.10;1.00;11.30;98527.00;;;;5036137;28;20441;-78
2021/12/28 10:48:57;;;;;;;6.20;5.53;;;11.10;1.00;11.30;98521.00;;;;5046034;28;20487;-79
2021/12/28 10:51:29;;;;;;;6.30;5.80;;;11.00;1.00;11.20;98525.00;;;;5036716;28;20479;-79
2021/12/28 10:54:06;;;;;;;6.20;5.70;;;10.90;1.00;11.20;98518.00;;;;5029696;28;21008;-80
2021/12/28 10:56:38;;;;;;;6.40;5.90;;;11.00;1.00;11.20;98501.00;;;;5027059;28;20463;-80
2021/12/28 10:59:10;;;;;;;6.70;6.03;;;10.90;1.00;11.30;98510.00;;;;5027076;28;20527;-83
2021/12/28 11:01:41;;;;;;;7.70;6.50;;;10.90;1.00;11.20;98513.00;;;;5042317;28;20450;-82
2021/12/28 11:04:13;;;;;;;6.90;6.30;;;11.00;1.00;11.30;98513.00;;;;5027463;28;20442;-80
2021/12/28 11:06:44;;;;;;;7.80;6.93;;;11.00;1.00;11.30;98512.00;;;;5028387;28;20449;-80
2021/12/28 11:09:17;;;;;;;7.40;6.70;;;11.00;1.00;11.40;98510.00;;;;5024620;28;20536;-83
2021/12/28 11:11:47;;;;;;;7.40;6.70;;;11.10;1.00;11.40;98495.00;;;;5036017;28;20456;-84